Janesville, Wisconsin
Current Conditions -  °F | °C
As of 8:55 PM on Wednesday 26 Nov 2014 (Local Time) from KJVL Reporting Station
Haze Haze  
Wind Chill: 10°   Ceiling: 10000
Heat Index: 19°   Visibility: 5mi
Dew Point: 18°   Wind: 7mph
Humidity: 93%   Direction: 320°NW
Pressure: 30.19"   Gusts: NA
Location:  42.69°N, 89.02°W
Report Text: KJVL 270255Z AUTO 32006KT 5SM BR BKN100 M07/M08 A3019 RMK AO2
Loading
Personal Weather Stations






























Interactive Weather Map New forecast layout! Learn more

10-Day Weather Forecast

Advertisements
Track Severe Weather on mobile